sensor_id;sensor_type;location;lat;lon;timestamp;pressure;altitude;pressure_sealevel;temperature;humidity
61359;BME280;47228;46.762;23.598;2023-10-13T00:02:01;97574.91;;;10.64;79.67
61359;BME280;47228;46.762;23.598;2023-10-13T00:04:32;97573.31;;;10.64;79.99
61359;BME280;47228;46.762;23.598;2023-10-13T00:07:03;97571.34;;;10.63;79.96
61359;BME280;47228;46.762;23.598;2023-10-13T00:09:32;97568.52;;;10.61;80.13
61359;BME280;47228;46.762;23.598;2023-10-13T00:12:00;97568.39;;;10.59;80.19
61359;BME280;47228;46.762;23.598;2023-10-13T00:14:28;97567.60;;;10.59;80.16
61359;BME280;47228;46.762;23.598;2023-10-13T00:17:04;97564.30;;;10.58;80.32
61359;BME280;47228;46.762;23.598;2023-10-13T00:19:36;97555.10;;;10.58;80.36
61359;BME280;47228;46.762;23.598;2023-10-13T00:22:15;97558.38;;;10.59;80.59
61359;BME280;47228;46.762;23.598;2023-10-13T00:24:44;97557.80;;;10.59;80.55
61359;BME280;47228;46.762;23.598;2023-10-13T00:27:18;97557.27;;;10.61;80.85
61359;BME280;47228;46.762;23.598;2023-10-13T00:30:03;97556.33;;;10.63;80.68
61359;BME280;47228;46.762;23.598;2023-10-13T00:32:52;97560.14;;;10.63;80.70
61359;BME280;47228;46.762;23.598;2023-10-13T00:35:25;97560.12;;;10.65;80.93
61359;BME280;47228;46.762;23.598;2023-10-13T00:37:56;97565.73;;;10.68;81.16
61359;BME280;47228;46.762;23.598;2023-10-13T00:40:32;97568.11;;;10.71;81.08
61359;BME280;47228;46.762;23.598;2023-10-13T00:43:01;97562.18;;;10.75;81.13
61359;BME280;47228;46.762;23.598;2023-10-13T00:45:57;97560.60;;;10.76;80.64
61359;BME280;47228;46.762;23.598;2023-10-13T00:48:28;97564.54;;;10.75;80.42
61359;BME280;47228;46.762;23.598;2023-10-13T00:51:06;97564.92;;;10.74;80.61
61359;BME280;47228;46.762;23.598;2023-10-13T00:53:36;97562.39;;;10.73;80.51
61359;BME280;47228;46.762;23.598;2023-10-13T00:56:08;97562.23;;;10.70;80.34
61359;BME280;47228;46.762;23.598;2023-10-13T00:58:55;97558.77;;;10.67;80.49
61359;BME280;47228;46.762;23.598;2023-10-13T01:01:28;97565.75;;;10.62;80.20
61359;BME280;47228;46.762;23.598;2023-10-13T01:04:02;97568.83;;;10.57;80.34
61359;BME280;47228;46.762;23.598;2023-10-13T01:06:31;97568.63;;;10.56;80.89
61359;BME280;47228;46.762;23.598;2023-10-13T01:09:04;97573.81;;;10.57;81.09
61359;BME280;47228;46.762;23.598;2023-10-13T01:11:47;97574.52;;;10.60;80.86
61359;BME280;47228;46.762;23.598;2023-10-13T01:14:22;97572.23;;;10.60;80.86
61359;BME280;47228;46.762;23.598;2023-10-13T01:16:51;97572.23;;;10.61;81.02
61359;BME280;47228;46.762;23.598;2023-10-13T01:19:20;97573.94;;;10.62;80.87
61359;BME280;47228;46.762;23.598;2023-10-13T01:21:56;97566.23;;;10.61;80.74
61359;BME280;47228;46.762;23.598;2023-10-13T01:24:32;97568.67;;;10.60;80.85
61359;BME280;47228;46.762;23.598;2023-10-13T01:27:03;97562.99;;;10.59;80.69
61359;BME280;47228;46.762;23.598;2023-10-13T01:29:48;97561.02;;;10.58;80.73
61359;BME280;47228;46.762;23.598;2023-10-13T01:32:22;97561.77;;;10.56;80.63
61359;BME280;47228;46.762;23.598;2023-10-13T01:34:50;97562.53;;;10.55;80.76
61359;BME280;47228;46.762;23.598;2023-10-13T01:37:23;97561.59;;;10.55;80.95
61359;BME280;47228;46.762;23.598;2023-10-13T01:39:51;97567.05;;;10.53;80.75
61359;BME280;47228;46.762;23.598;2023-10-13T01:42:19;97561.20;;;10.54;81.09
61359;BME280;47228;46.762;23.598;2023-10-13T01:44:50;97568.23;;;10.53;81.06
61359;BME280;47228;46.762;23.598;2023-10-13T01:47:19;97568.20;;;10.54;81.26
61359;BME280;47228;46.762;23.598;2023-10-13T01:49:49;97572.61;;;10.54;80.95
61359;BME280;47228;46.762;23.598;2023-10-13T01:52:18;97572.83;;;10.54;80.77
61359;BME280;47228;46.762;23.598;2023-10-13T01:54:47;97571.59;;;10.54;80.98
61359;BME280;47228;46.762;23.598;2023-10-13T01:57:17;97573.64;;;10.55;80.94
61359;BME280;47228;46.762;23.598;2023-10-13T01:59:47;97575.48;;;10.55;81.04
61359;BME280;47228;46.762;23.598;2023-10-13T02:02:17;97572.75;;;10.56;80.91
61359;BME280;47228;46.762;23.598;2023-10-13T02:04:57;97572.20;;;10.52;80.56
61359;BME280;47228;46.762;23.598;2023-10-13T02:07:29;97569.80;;;10.45;80.55
61359;BME280;47228;46.762;23.598;2023-10-13T02:10:03;97566.89;;;10.42;80.99
61359;BME280;47228;46.762;23.598;2023-10-13T02:12:34;97564.58;;;10.38;81.16
61359;BME280;47228;46.762;23.598;2023-10-13T02:15:23;97566.61;;;10.34;81.16
61359;BME280;47228;46.762;23.598;2023-10-13T02:17:54;97564.44;;;10.34;81.68
61359;BME280;47228;46.762;23.598;2023-10-13T02:20:23;97562.13;;;10.36;81.66
61359;BME280;47228;46.762;23.598;2023-10-13T02:22:52;97562.59;;;10.38;81.54
61359;BME280;47228;46.762;23.598;2023-10-13T02:25:20;97570.27;;;10.38;81.34
61359;BME280;47228;46.762;23.598;2023-10-13T02:28:04;97569.49;;;10.32;81.34
61359;BME280;47228;46.762;23.598;2023-10-13T02:30:43;97570.06;;;10.31;81.28
61359;BME280;47228;46.762;23.598;2023-10-13T02:33:17;97566.09;;;10.30;81.46
61359;BME280;47228;46.762;23.598;2023-10-13T02:35:58;97563.43;;;10.29;81.62
61359;BME280;47228;46.762;23.598;2023-10-13T02:38:26;97558.33;;;10.28;81.53
61359;BME280;47228;46.762;23.598;2023-10-13T02:41:19;97552.95;;;10.29;81.71
61359;BME280;47228;46.762;23.598;2023-10-13T02:43:55;97554.30;;;10.31;81.84
61359;BME280;47228;46.762;23.598;2023-10-13T02:46:24;97557.77;;;10.32;81.66
61359;BME280;47228;46.762;23.598;2023-10-13T02:48:56;97557.05;;;10.34;81.99
61359;BME280;47228;46.762;23.598;2023-10-13T02:51:30;97556.73;;;10.36;81.85
61359;BME280;47228;46.762;23.598;2023-10-13T02:54:04;97560.84;;;10.32;81.45
61359;BME280;47228;46.762;23.598;2023-10-13T02:56:39;97553.47;;;10.30;81.38
61359;BME280;47228;46.762;23.598;2023-10-13T02:59:36;97548.36;;;10.26;81.21
61359;BME280;47228;46.762;23.598;2023-10-13T03:02:08;97545.48;;;10.25;81.67
61359;BME280;47228;46.762;23.598;2023-10-13T03:04:54;97552.04;;;10.28;82.12
61359;BME280;47228;46.762;23.598;2023-10-13T03:07:36;97552.62;;;10.30;82.03
61359;BME280;47228;46.762;23.598;2023-10-13T03:10:05;97550.92;;;10.34;81.95
61359;BME280;47228;46.762;23.598;2023-10-13T03:12:40;97549.78;;;10.33;82.09
61359;BME280;47228;46.762;23.598;2023-10-13T03:15:08;97550.20;;;10.35;82.21
61359;BME280;47228;46.762;23.598;2023-10-13T03:17:43;97550.09;;;10.39;82.51
61359;BME280;47228;46.762;23.598;2023-10-13T03:20:14;97546.88;;;10.42;82.48
61359;BME280;47228;46.762;23.598;2023-10-13T03:22:44;97543.93;;;10.45;82.37
61359;BME280;47228;46.762;23.598;2023-10-13T03:25:15;97541.86;;;10.48;82.36
61359;BME280;47228;46.762;23.598;2023-10-13T03:27:58;97546.70;;;10.52;82.61
61359;BME280;47228;46.762;23.598;2023-10-13T03:30:29;97549.13;;;10.56;82.34
61359;BME280;47228;46.762;23.598;2023-10-13T03:33:05;97543.24;;;10.57;81.97
61359;BME280;47228;46.762;23.598;2023-10-13T03:35:36;97534.58;;;10.54;81.90
61359;BME280;47228;46.762;23.598;2023-10-13T03:38:10;97522.69;;;10.52;81.86
61359;BME280;47228;46.762;23.598;2023-10-13T03:40:50;97523.63;;;10.51;81.98
61359;BME280;47228;46.762;23.598;2023-10-13T03:43:38;97525.50;;;10.53;81.94
61359;BME280;47228;46.762;23.598;2023-10-13T03:46:38;97525.66;;;10.53;81.96
61359;BME280;47228;46.762;23.598;2023-10-13T03:49:09;97528.86;;;10.54;82.33
61359;BME280;47228;46.762;23.598;2023-10-13T03:51:41;97527.67;;;10.54;82.13
61359;BME280;47228;46.762;23.598;2023-10-13T03:54:09;97524.31;;;10.54;82.11
61359;BME280;47228;46.762;23.598;2023-10-13T03:56:37;97524.23;;;10.56;82.19
61359;BME280;47228;46.762;23.598;2023-10-13T03:59:08;97525.94;;;10.58;82.34
61359;BME280;47228;46.762;23.598;2023-10-13T04:01:37;97524.86;;;10.59;82.37
61359;BME280;47228;46.762;23.598;2023-10-13T04:04:12;97529.61;;;10.62;82.41
61359;BME280;47228;46.762;23.598;2023-10-13T04:06:42;97530.73;;;10.64;82.23
61359;BME280;47228;46.762;23.598;2023-10-13T04:11:57;97533.92;;;10.67;82.53
61359;BME280;47228;46.762;23.598;2023-10-13T04:14:35;97533.31;;;10.69;82.69
61359;BME280;47228;46.762;23.598;2023-10-13T04:17:12;97531.02;;;10.72;82.67
61359;BME280;47228;46.762;23.598;2023-10-13T04:19:43;97530.96;;;10.74;82.71
61359;BME280;47228;46.762;23.598;2023-10-13T04:22:39;97536.70;;;10.79;82.92
61359;BME280;47228;46.762;23.598;2023-10-13T04:33:19;97554.19;;;10.90;82.53
61359;BME280;47228;46.762;23.598;2023-10-13T04:36:13;97561.79;;;10.92;82.28
61359;BME280;47228;46.762;23.598;2023-10-13T04:38:46;97558.57;;;10.92;82.11
61359;BME280;47228;46.762;23.598;2023-10-13T04:41:25;97561.75;;;10.93;82.15
61359;BME280;47228;46.762;23.598;2023-10-13T04:44:00;97563.41;;;10.97;82.22
61359;BME280;47228;46.762;23.598;2023-10-13T04:46:51;97574.33;;;11.02;82.28
61359;BME280;47228;46.762;23.598;2023-10-13T04:49:20;97575.02;;;11.03;82.25
61359;BME280;47228;46.762;23.598;2023-10-13T04:51:58;97582.85;;;11.04;82.30
61359;BME280;47228;46.762;23.598;2023-10-13T04:54:28;97592.09;;;11.04;81.88
61359;BME280;47228;46.762;23.598;2023-10-13T04:57:14;97591.25;;;11.01;81.80
61359;BME280;47228;46.762;23.598;2023-10-13T04:59:52;97601.30;;;10.98;81.77
61359;BME280;47228;46.762;23.598;2023-10-13T05:02:43;97604.81;;;10.97;82.00
61359;BME280;47228;46.762;23.598;2023-10-13T05:05:23;97622.23;;;10.98;82.17
61359;BME280;47228;46.762;23.598;2023-10-13T05:08:10;97614.08;;;10.98;82.32
61359;BME280;47228;46.762;23.598;2023-10-13T05:10:57;97617.95;;;11.00;82.56
61359;BME280;47228;46.762;23.598;2023-10-13T05:13:43;97623.31;;;11.01;82.74
61359;BME280;47228;46.762;23.598;2023-10-13T05:16:30;97627.89;;;11.03;82.81
61359;BME280;47228;46.762;23.598;2023-10-13T05:19:16;97627.41;;;11.04;82.94
61359;BME280;47228;46.762;23.598;2023-10-13T05:22:03;97636.67;;;11.08;83.43
61359;BME280;47228;46.762;23.598;2023-10-13T05:24:50;97643.27;;;11.10;83.18
61359;BME280;47228;46.762;23.598;2023-10-13T05:27:41;97646.33;;;11.13;83.13
61359;BME280;47228;46.762;23.598;2023-10-13T05:30:31;97651.33;;;11.15;83.17
61359;BME280;47228;46.762;23.598;2023-10-13T05:33:18;97655.23;;;11.18;83.20
61359;BME280;47228;46.762;23.598;2023-10-13T05:36:10;97656.50;;;11.20;82.97
61359;BME280;47228;46.762;23.598;2023-10-13T05:38:57;97666.23;;;11.21;82.79
61359;BME280;47228;46.762;23.598;2023-10-13T05:41:43;97663.17;;;11.22;82.60
61359;BME280;47228;46.762;23.598;2023-10-13T05:44:30;97662.67;;;11.21;82.31
61359;BME280;47228;46.762;23.598;2023-10-13T05:47:01;97663.94;;;11.18;81.95
61359;BME280;47228;46.762;23.598;2023-10-13T05:49:50;97667.48;;;11.16;82.30
61359;BME280;47228;46.762;23.598;2023-10-13T05:52:20;97672.36;;;11.17;82.63
61359;BME280;47228;46.762;23.598;2023-10-13T05:55:08;97678.00;;;11.18;82.57
61359;BME280;47228;46.762;23.598;2023-10-13T05:57:55;97679.77;;;11.21;82.58
61359;BME280;47228;46.762;23.598;2023-10-13T06:00:42;97679.50;;;11.23;82.63
61359;BME280;47228;46.762;23.598;2023-10-13T06:03:28;97677.45;;;11.24;82.46
61359;BME280;47228;46.762;23.598;2023-10-13T06:06:15;97683.23;;;11.26;82.49
61359;BME280;47228;46.762;23.598;2023-10-13T06:09:02;97685.87;;;11.31;82.87
61359;BME280;47228;46.762;23.598;2023-10-13T06:11:49;97693.04;;;11.34;82.75
61359;BME280;47228;46.762;23.598;2023-10-13T06:14:36;97698.16;;;11.38;82.74
61359;BME280;47228;46.762;23.598;2023-10-13T06:17:23;97703.94;;;11.43;82.82
61359;BME280;47228;46.762;23.598;2023-10-13T06:20:10;97708.33;;;11.47;82.73
61359;BME280;47228;46.762;23.598;2023-10-13T06:22:56;97709.15;;;11.51;82.65
61359;BME280;47228;46.762;23.598;2023-10-13T06:25:43;97710.06;;;11.53;82.41
61359;BME280;47228;46.762;23.598;2023-10-13T06:28:29;97709.86;;;11.54;82.37
61359;BME280;47228;46.762;23.598;2023-10-13T06:31:10;97722.80;;;11.55;82.70
61359;BME280;47228;46.762;23.598;2023-10-13T06:33:54;97734.52;;;11.56;82.73
61359;BME280;47228;46.762;23.598;2023-10-13T06:36:23;97741.97;;;11.59;82.78
61359;BME280;47228;46.762;23.598;2023-10-13T06:38:53;97744.39;;;11.62;82.64
61359;BME280;47228;46.762;23.598;2023-10-13T06:41:44;97757.41;;;11.66;82.84
61359;BME280;47228;46.762;23.598;2023-10-13T06:44:12;97770.55;;;11.68;82.80
61359;BME280;47228;46.762;23.598;2023-10-13T06:46:43;97778.74;;;11.68;82.64
61359;BME280;47228;46.762;23.598;2023-10-13T06:49:12;97780.25;;;11.67;82.47
61359;BME280;47228;46.762;23.598;2023-10-13T06:51:42;97783.52;;;11.65;82.47
61359;BME280;47228;46.762;23.598;2023-10-13T06:54:10;97780.78;;;11.66;82.40
61359;BME280;47228;46.762;23.598;2023-10-13T06:56:47;97779.77;;;11.67;82.61
61359;BME280;47228;46.762;23.598;2023-10-13T06:59:20;97779.95;;;11.70;82.86
61359;BME280;47228;46.762;23.598;2023-10-13T07:01:54;97774.10;;;11.72;82.97
61359;BME280;47228;46.762;23.598;2023-10-13T07:04:48;97769.92;;;11.74;83.04
61359;BME280;47228;46.762;23.598;2023-10-13T07:07:16;97768.62;;;11.78;83.58
61359;BME280;47228;46.762;23.598;2023-10-13T07:09:44;97773.86;;;11.83;83.50
61359;BME280;47228;46.762;23.598;2023-10-13T07:12:23;97780.73;;;11.88;83.41
61359;BME280;47228;46.762;23.598;2023-10-13T07:14:54;97775.41;;;11.93;83.46
61359;BME280;47228;46.762;23.598;2023-10-13T07:17:31;97770.42;;;11.97;83.37
61359;BME280;47228;46.762;23.598;2023-10-13T07:20:07;97771.38;;;11.99;83.04
61359;BME280;47228;46.762;23.598;2023-10-13T07:22:54;97774.45;;;12.03;83.00
61359;BME280;47228;46.762;23.598;2023-10-13T07:25:34;97766.67;;;12.02;83.02
61359;BME280;47228;46.762;23.598;2023-10-13T07:28:08;97768.11;;;12.04;82.65
61359;BME280;47228;46.762;23.598;2023-10-13T07:30:38;97764.58;;;12.07;82.85
61359;BME280;47228;46.762;23.598;2023-10-13T07:33:17;97767.11;;;12.12;82.89
61359;BME280;47228;46.762;23.598;2023-10-13T07:36:05;97764.65;;;12.17;83.17
61359;BME280;47228;46.762;23.598;2023-10-13T07:38:45;97771.39;;;12.24;83.26
61359;BME280;47228;46.762;23.598;2023-10-13T07:41:32;97770.00;;;12.32;83.22
61359;BME280;47228;46.762;23.598;2023-10-13T07:44:01;97764.06;;;12.40;83.30
61359;BME280;47228;46.762;23.598;2023-10-13T07:46:32;97765.86;;;12.50;83.09
61359;BME280;47228;46.762;23.598;2023-10-13T07:49:03;97765.33;;;12.58;82.66
61359;BME280;47228;46.762;23.598;2023-10-13T07:51:38;97761.64;;;12.67;82.82
61359;BME280;47228;46.762;23.598;2023-10-13T07:54:13;97760.74;;;12.76;82.62
61359;BME280;47228;46.762;23.598;2023-10-13T07:56:49;97764.14;;;12.84;82.11
61359;BME280;47228;46.762;23.598;2023-10-13T07:59:18;97762.80;;;12.93;81.71
61359;BME280;47228;46.762;23.598;2023-10-13T08:01:50;97763.25;;;13.00;81.45
61359;BME280;47228;46.762;23.598;2023-10-13T08:04:40;97756.25;;;13.09;81.30
61359;BME280;47228;46.762;23.598;2023-10-13T08:07:08;97745.52;;;13.18;81.24
61359;BME280;47228;46.762;23.598;2023-10-13T08:09:42;97746.55;;;13.28;80.81
61359;BME280;47228;46.762;23.598;2023-10-13T08:12:19;97742.05;;;13.34;80.01
61359;BME280;47228;46.762;23.598;2023-10-13T08:14:49;97737.02;;;13.36;79.65
61359;BME280;47228;46.762;23.598;2023-10-13T08:17:37;97734.79;;;13.42;79.85
61359;BME280;47228;46.762;23.598;2023-10-13T08:20:05;97726.61;;;13.49;79.83
61359;BME280;47228;46.762;23.598;2023-10-13T08:22:39;97724.90;;;13.56;79.66
61359;BME280;47228;46.762;23.598;2023-10-13T08:25:14;97723.32;;;13.63;79.29
61359;BME280;47228;46.762;23.598;2023-10-13T08:27:52;97722.70;;;13.69;79.16
61359;BME280;47228;46.762;23.598;2023-10-13T08:30:38;97721.14;;;13.76;79.26
61359;BME280;47228;46.762;23.598;2023-10-13T08:33:21;97717.44;;;13.84;79.14
61359;BME280;47228;46.762;23.598;2023-10-13T08:35:54;97721.70;;;13.90;79.10
61359;BME280;47228;46.762;23.598;2023-10-13T08:38:22;97724.00;;;13.95;78.83
61359;BME280;47228;46.762;23.598;2023-10-13T08:40:59;97725.40;;;14.02;78.72
61359;BME280;47228;46.762;23.598;2023-10-13T08:43:46;97726.01;;;14.10;78.69
61359;BME280;47228;46.762;23.598;2023-10-13T08:46:21;97728.65;;;14.18;78.32
61359;BME280;47228;46.762;23.598;2023-10-13T08:48:58;97730.55;;;14.26;78.11
61359;BME280;47228;46.762;23.598;2023-10-13T08:51:42;97731.63;;;14.36;77.88
61359;BME280;47228;46.762;23.598;2023-10-13T08:54:35;97733.23;;;14.45;77.78
61359;BME280;47228;46.762;23.598;2023-10-13T08:57:06;97731.35;;;14.55;77.74
61359;BME280;47228;46.762;23.598;2023-10-13T08:59:54;97731.17;;;14.65;77.42
61359;BME280;47228;46.762;23.598;2023-10-13T09:02:23;97729.78;;;14.72;76.94
61359;BME280;47228;46.762;23.598;2023-10-13T09:05:27;97726.27;;;14.81;76.95
61359;BME280;47228;46.762;23.598;2023-10-13T09:08:29;97723.16;;;14.92;77.22
61359;BME280;47228;46.762;23.598;2023-10-13T09:11:04;97723.20;;;15.02;77.02
61359;BME280;47228;46.762;23.598;2023-10-13T09:13:41;97727.58;;;15.12;76.77
61359;BME280;47228;46.762;23.598;2023-10-13T09:16:13;97730.12;;;15.20;76.75
61359;BME280;47228;46.762;23.598;2023-10-13T09:19:05;97732.85;;;15.29;76.37
61359;BME280;47228;46.762;23.598;2023-10-13T09:21:39;97734.88;;;15.35;76.06
61359;BME280;47228;46.762;23.598;2023-10-13T09:24:09;97734.00;;;15.43;75.97
61359;BME280;47228;46.762;23.598;2023-10-13T09:26:47;97735.03;;;15.49;75.58
61359;BME280;47228;46.762;23.598;2023-10-13T09:29:17;97739.64;;;15.53;75.34
61359;BME280;47228;46.762;23.598;2023-10-13T09:31:47;97740.57;;;15.58;75.58
61359;BME280;47228;46.762;23.598;2023-10-13T09:34:27;97743.42;;;15.63;75.47
61359;BME280;47228;46.762;23.598;2023-10-13T09:36:58;97745.96;;;15.65;74.96
61359;BME280;47228;46.762;23.598;2023-10-13T09:39:26;97745.13;;;15.66;74.45
61359;BME280;47228;46.762;23.598;2023-10-13T09:41:58;97748.64;;;15.68;74.22
61359;BME280;47228;46.762;23.598;2023-10-13T09:44:27;97745.05;;;15.70;74.17
61359;BME280;47228;46.762;23.598;2023-10-13T09:47:01;97746.77;;;15.73;74.25
61359;BME280;47228;46.762;23.598;2023-10-13T09:49:39;97744.10;;;15.78;74.00
61359;BME280;47228;46.762;23.598;2023-10-13T09:52:20;97745.10;;;15.83;73.81
61359;BME280;47228;46.762;23.598;2023-10-13T09:55:36;97746.46;;;15.88;73.50
61359;BME280;47228;46.762;23.598;2023-10-13T09:58:07;97745.37;;;15.95;73.46
61359;BME280;47228;46.762;23.598;2023-10-13T10:00:51;97744.42;;;16.00;73.32
61359;BME280;47228;46.762;23.598;2023-10-13T10:03:26;97743.48;;;16.08;73.55
61359;BME280;47228;46.762;23.598;2023-10-13T10:06:03;97739.67;;;16.18;73.81
61359;BME280;47228;46.762;23.598;2023-10-13T10:08:34;97738.10;;;16.31;74.05
61359;BME280;47228;46.762;23.598;2023-10-13T10:17:08;97726.95;;;16.69;73.91
61359;BME280;47228;46.762;23.598;2023-10-13T10:19:51;97724.73;;;16.77;73.54
61359;BME280;47228;46.762;23.598;2023-10-13T10:25:05;97713.05;;;16.91;73.28
61359;BME280;47228;46.762;23.598;2023-10-13T10:27:56;97712.55;;;16.95;73.28
61359;BME280;47228;46.762;23.598;2023-10-13T10:30:29;97711.58;;;16.97;73.19
61359;BME280;47228;46.762;23.598;2023-10-13T10:32:58;97709.67;;;16.99;73.31
61359;BME280;47228;46.762;23.598;2023-10-13T10:35:29;97715.52;;;17.02;73.39
61359;BME280;47228;46.762;23.598;2023-10-13T10:38:07;97715.02;;;17.05;73.64
61359;BME280;47228;46.762;23.598;2023-10-13T10:40:53;97710.29;;;17.07;73.45
61359;BME280;47228;46.762;23.598;2023-10-13T10:43:39;97710.39;;;17.11;73.57
61359;BME280;47228;46.762;23.598;2023-10-13T10:46:29;97705.55;;;17.13;73.66
61359;BME280;47228;46.762;23.598;2023-10-13T10:49:08;97704.27;;;17.16;73.58
61359;BME280;47228;46.762;23.598;2023-10-13T10:51:41;97705.27;;;17.21;73.61
61359;BME280;47228;46.762;23.598;2023-10-13T10:54:19;97705.58;;;17.26;73.55
61359;BME280;47228;46.762;23.598;2023-10-13T10:56:48;97700.95;;;17.34;73.62
61359;BME280;47228;46.762;23.598;2023-10-13T10:59:21;97697.27;;;17.44;73.71
61359;BME280;47228;46.762;23.598;2023-10-13T11:01:53;97694.14;;;17.52;73.58
61359;BME280;47228;46.762;23.598;2023-10-13T11:04:21;97689.60;;;17.59;73.23
61359;BME280;47228;46.762;23.598;2023-10-13T11:06:56;97687.25;;;17.69;73.03
61359;BME280;47228;46.762;23.598;2023-10-13T11:09:32;97689.05;;;17.77;72.70
61359;BME280;47228;46.762;23.598;2023-10-13T11:12:14;97690.71;;;17.83;72.58
61359;BME280;47228;46.762;23.598;2023-10-13T11:14:44;97690.54;;;17.89;72.47
61359;BME280;47228;46.762;23.598;2023-10-13T11:17:19;97688.77;;;17.94;72.39
61359;BME280;47228;46.762;23.598;2023-10-13T11:20:11;97685.81;;;18.02;72.35
61359;BME280;47228;46.762;23.598;2023-10-13T11:22:47;97682.51;;;18.07;72.09
61359;BME280;47228;46.762;23.598;2023-10-13T11:25:25;97680.00;;;18.10;71.97
61359;BME280;47228;46.762;23.598;2023-10-13T11:28:14;97677.20;;;18.13;72.14
61359;BME280;47228;46.762;23.598;2023-10-13T11:30:47;97674.90;;;18.15;71.77
61359;BME280;47228;46.762;23.598;2023-10-13T11:33:19;97669.66;;;18.15;71.13
61359;BME280;47228;46.762;23.598;2023-10-13T11:35:57;97666.31;;;18.15;71.12
61359;BME280;47228;46.762;23.598;2023-10-13T11:38:30;97662.62;;;18.15;70.95
61359;BME280;47228;46.762;23.598;2023-10-13T11:41:22;97661.07;;;18.16;70.73
61359;BME280;47228;46.762;23.598;2023-10-13T11:43:51;97664.16;;;18.18;70.58
61359;BME280;47228;46.762;23.598;2023-10-13T11:46:21;97663.52;;;18.22;70.83
61359;BME280;47228;46.762;23.598;2023-10-13T11:49:09;97662.80;;;18.28;70.15
61359;BME280;47228;46.762;23.598;2023-10-13T11:51:55;97659.40;;;18.31;69.10
61359;BME280;47228;46.762;23.598;2023-10-13T11:54:36;97657.31;;;18.34;68.50
61359;BME280;47228;46.762;23.598;2023-10-13T11:57:09;97658.29;;;18.39;68.74
61359;BME280;47228;46.762;23.598;2023-10-13T11:59:37;97659.94;;;18.45;68.23
61359;BME280;47228;46.762;23.598;2023-10-13T12:02:12;97658.71;;;18.50;68.17
61359;BME280;47228;46.762;23.598;2023-10-13T12:04:55;97654.04;;;18.58;67.90
61359;BME280;47228;46.762;23.598;2023-10-13T12:07:25;97655.70;;;18.66;67.20
61359;BME280;47228;46.762;23.598;2023-10-13T12:10:12;97652.84;;;18.74;66.73
61359;BME280;47228;46.762;23.598;2023-10-13T12:12:45;97649.42;;;18.80;66.97
61359;BME280;47228;46.762;23.598;2023-10-13T12:15:14;97651.51;;;18.84;66.51
61359;BME280;47228;46.762;23.598;2023-10-13T12:17:54;97652.97;;;18.85;66.15
61359;BME280;47228;46.762;23.598;2023-10-13T12:20:26;97653.20;;;18.85;65.90
61359;BME280;47228;46.762;23.598;2023-10-13T12:23:01;97651.47;;;18.85;65.91
61359;BME280;47228;46.762;23.598;2023-10-13T12:25:44;97652.75;;;18.83;65.61
61359;BME280;47228;46.762;23.598;2023-10-13T12:28:28;97652.10;;;18.84;65.47
61359;BME280;47228;46.762;23.598;2023-10-13T12:31:04;97651.48;;;18.86;65.46
61359;BME280;47228;46.762;23.598;2023-10-13T12:33:35;97653.95;;;18.89;65.55
61359;BME280;47228;46.762;23.598;2023-10-13T12:36:09;97655.48;;;18.93;65.34
61359;BME280;47228;46.762;23.598;2023-10-13T12:38:49;97657.69;;;18.96;65.16
61359;BME280;47228;46.762;23.598;2023-10-13T12:41:20;97659.19;;;19.00;65.30
61359;BME280;47228;46.762;23.598;2023-10-13T12:44:06;97658.80;;;19.04;64.98
61359;BME280;47228;46.762;23.598;2023-10-13T12:46:53;97655.91;;;19.05;64.72
61359;BME280;47228;46.762;23.598;2023-10-13T12:49:40;97655.30;;;19.07;64.84
61359;BME280;47228;46.762;23.598;2023-10-13T12:52:09;97651.52;;;19.10;65.10
61359;BME280;47228;46.762;23.598;2023-10-13T12:55:00;97647.39;;;19.11;65.06
61359;BME280;47228;46.762;23.598;2023-10-13T12:57:35;97650.20;;;19.11;64.99
61359;BME280;47228;46.762;23.598;2023-10-13T13:00:11;97647.14;;;19.12;65.07
61359;BME280;47228;46.762;23.598;2023-10-13T13:02:50;97643.74;;;19.11;64.91
61359;BME280;47228;46.762;23.598;2023-10-13T13:05:20;97642.71;;;19.10;64.97
61359;BME280;47228;46.762;23.598;2023-10-13T13:07:50;97644.56;;;19.09;65.15
61359;BME280;47228;46.762;23.598;2023-10-13T13:10:22;97643.69;;;19.08;65.53
61359;BME280;47228;46.762;23.598;2023-10-13T13:13:03;97642.23;;;19.07;65.53
61359;BME280;47228;46.762;23.598;2023-10-13T13:15:33;97639.48;;;19.07;65.45
61359;BME280;47228;46.762;23.598;2023-10-13T13:18:01;97638.67;;;19.08;65.41
61359;BME280;47228;46.762;23.598;2023-10-13T13:20:38;97636.63;;;19.11;65.61
61359;BME280;47228;46.762;23.598;2023-10-13T13:23:22;97633.55;;;19.15;65.56
61359;BME280;47228;46.762;23.598;2023-10-13T13:25:58;97630.96;;;19.19;65.24
61359;BME280;47228;46.762;23.598;2023-10-13T13:28:27;97632.59;;;19.27;64.42
61359;BME280;47228;46.762;23.598;2023-10-13T13:31:05;97631.73;;;19.37;64.02
61359;BME280;47228;46.762;23.598;2023-10-13T13:33:36;97630.25;;;19.45;63.88
61359;BME280;47228;46.762;23.598;2023-10-13T13:36:06;97630.67;;;19.51;63.45
61359;BME280;47228;46.762;23.598;2023-10-13T13:38:34;97630.23;;;19.56;63.27
61359;BME280;47228;46.762;23.598;2023-10-13T13:41:02;97631.02;;;19.59;63.19
61359;BME280;47228;46.762;23.598;2023-10-13T13:43:31;97631.19;;;19.60;63.07
61359;BME280;47228;46.762;23.598;2023-10-13T13:46:07;97629.26;;;19.61;63.21
61359;BME280;47228;46.762;23.598;2023-10-13T13:48:39;97625.98;;;19.61;63.22
61359;BME280;47228;46.762;23.598;2023-10-13T13:51:09;97628.02;;;19.62;63.30
61359;BME280;47228;46.762;23.598;2023-10-13T13:53:44;97622.04;;;19.61;63.30
61359;BME280;47228;46.762;23.598;2023-10-13T13:56:18;97622.41;;;19.60;63.17
61359;BME280;47228;46.762;23.598;2023-10-13T13:58:49;97621.60;;;19.59;63.52
61359;BME280;47228;46.762;23.598;2023-10-13T14:01:24;97621.93;;;19.60;63.58